Terminal Aerodrome Forecast
Issued by NWS

Home | Current Version | Previous Version | Graphics & Text | Print | Product List | Glossary On
Versions: 1 2 3 4 5 6 7 8 9 10 11 12 13 14 15 16 17 18 19 20 21
478
FTUS43 KIWX 191121
TAFSBN
TAF
KSBN 191121Z 1912/2012 13006KT P6SM VCSH OVC008
     FM191600 27006KT P6SM VCSH OVC010
     FM191900 30009KT P6SM OVC020
     FM192100 31009KT P6SM SCT025 BKN040
     FM200800 36005KT P6SM BKN080=

USA.gov is the U.S. government's official web portal to all federal, state and local government web resources and services.